Time;durP1;ratioP1;P1;durP2;ratioP2;P2;SDS_P1;SDS_P2;PMS_P1;PMS_P2;Temp;Humidity;BMP_temperature;BMP_pressure;BME280_temperature;BME280_humidity;BME280_pressure;Samples;Min_cycle;Max_cycle;Signal;HPM_P1;HPM_P2
2021/05/08 00:00:13;;;;;;;10.13;8.47;;;2.50;94.00;;;;;;5056830;28;20543;-80
2021/05/08 00:02:48;;;;;;;8.57;7.70;;;2.50;94.00;;;;;;5062007;28;20513;-81
2021/05/08 00:05:23;;;;;;;8.33;7.53;;;2.50;93.30;;;;;;5065723;28;20446;-81
2021/05/08 00:07:58;;;;;;;9.93;7.93;;;2.50;93.60;;;;;;5031406;28;20546;-80
2021/05/08 00:10:33;;;;;;;9.77;8.30;;;2.40;93.70;;;;;;5065093;28;20449;-81
2021/05/08 00:13:08;;;;;;;8.67;7.77;;;2.30;94.30;;;;;;5067244;28;20458;-81
2021/05/08 00:15:43;;;;;;;9.13;6.97;;;2.30;94.80;;;;;;5058532;28;20445;-80
2021/05/08 00:18:18;;;;;;;7.80;7.07;;;2.20;95.00;;;;;;5059608;28;20529;-80
2021/05/08 00:20:52;;;;;;;8.47;7.60;;;2.20;96.00;;;;;;5057556;28;20454;-81
2021/05/08 00:23:27;;;;;;;8.10;7.10;;;2.10;95.90;;;;;;5055984;28;20489;-81
2021/05/08 00:26:03;;;;;;;8.47;7.57;;;2.10;96.40;;;;;;5053238;28;20545;-79
2021/05/08 00:28:38;;;;;;;9.57;7.73;;;2.00;96.50;;;;;;5053946;28;20453;-82
2021/05/08 00:31:14;;;;;;;9.37;7.70;;;2.00;97.50;;;;;;5036838;28;20465;-79
2021/05/08 00:33:48;;;;;;;7.97;6.90;;;1.90;97.90;;;;;;5059693;28;20490;-80
2021/05/08 00:36:23;;;;;;;8.77;7.43;;;1.90;97.40;;;;;;5068914;28;20450;-79
2021/05/08 00:39:03;;;;;;;8.40;7.50;;;1.80;99.40;;;;;;5059558;28;20475;-79
2021/05/08 00:41:43;;;;;;;8.20;7.27;;;1.70;99.90;;;;;;5053225;28;20469;-80
2021/05/08 00:44:19;;;;;;;9.40;8.50;;;1.70;99.90;;;;;;5059710;28;20450;-80
2021/05/08 00:46:55;;;;;;;8.33;7.50;;;1.70;99.90;;;;;;5056398;28;20447;-80
2021/05/08 00:49:30;;;;;;;9.57;8.53;;;1.70;99.90;;;;;;5058218;28;20451;-80
2021/05/08 00:52:05;;;;;;;9.33;8.30;;;1.60;99.90;;;;;;5057381;28;20865;-80
2021/05/08 00:54:40;;;;;;;9.13;7.90;;;1.70;99.90;;;;;;5053927;28;20442;-80
2021/05/08 00:57:16;;;;;;;8.83;7.93;;;1.50;99.90;;;;;;5049249;28;20595;-76
2021/05/08 00:59:50;;;;;;;8.60;7.70;;;1.40;99.90;;;;;;5048958;28;20451;-76
2021/05/08 01:02:25;;;;;;;8.33;7.43;;;1.50;99.90;;;;;;5050035;28;20467;-76
2021/05/08 01:04:58;;;;;;;10.60;8.10;;;1.40;99.90;;;;;;5043338;28;20450;-75
2021/05/08 01:07:33;;;;;;;9.10;8.20;;;1.30;99.90;;;;;;5048507;28;20470;-75
2021/05/08 01:10:09;;;;;;;9.97;9.00;;;1.30;99.90;;;;;;5049365;28;20458;-76
2021/05/08 01:12:46;;;;;;;8.57;7.43;;;1.50;99.90;;;;;;5045572;28;20474;-75
2021/05/08 01:15:21;;;;;;;10.23;8.13;;;1.40;99.90;;;;;;5049579;28;20447;-77
2021/05/08 01:17:57;;;;;;;10.20;8.50;;;1.30;99.90;;;;;;5046961;28;20454;-76
2021/05/08 01:20:32;;;;;;;8.97;8.07;;;1.30;99.90;;;;;;5050834;28;20957;-75
2021/05/08 01:23:07;;;;;;;9.60;8.70;;;1.30;99.90;;;;;;5050043;28;20469;-74
2021/05/08 01:25:42;;;;;;;8.50;7.13;;;1.30;99.90;;;;;;5047642;28;21000;-74
2021/05/08 01:28:17;;;;;;;9.37;8.30;;;1.30;99.90;;;;;;5049871;28;20462;-74
2021/05/08 01:30:52;;;;;;;9.00;8.10;;;1.30;99.90;;;;;;5042193;28;20446;-76
2021/05/08 01:33:26;;;;;;;9.53;8.50;;;1.20;99.90;;;;;;5046187;28;20519;-77
2021/05/08 01:36:01;;;;;;;11.43;8.83;;;1.20;99.90;;;;;;5045968;28;20912;-75
2021/05/08 01:38:37;;;;;;;10.03;8.93;;;1.10;99.90;;;;;;5043612;28;20503;-75
2021/05/08 01:41:12;;;;;;;8.73;7.93;;;1.20;99.90;;;;;;5052177;28;21071;-75
2021/05/08 01:43:47;;;;;;;8.70;7.63;;;1.10;99.90;;;;;;5049708;28;20450;-75
2021/05/08 01:46:22;;;;;;;9.60;8.60;;;1.00;99.90;;;;;;5051679;28;20888;-74
2021/05/08 01:48:57;;;;;;;12.60;9.00;;;1.00;99.90;;;;;;5050112;28;20967;-75
2021/05/08 01:51:32;;;;;;;9.23;8.33;;;1.00;99.90;;;;;;5052312;28;20992;-74
2021/05/08 01:54:08;;;;;;;10.43;9.30;;;1.00;99.90;;;;;;5063765;28;20476;-75
2021/05/08 01:56:44;;;;;;;10.33;8.37;;;1.00;99.90;;;;;;5052778;28;20523;-77
2021/05/08 01:59:20;;;;;;;10.27;9.27;;;1.00;99.90;;;;;;5047425;28;20529;-76
2021/05/08 02:01:54;;;;;;;10.90;8.67;;;1.00;99.90;;;;;;5052420;28;20467;-75
2021/05/08 02:04:29;;;;;;;10.87;8.67;;;1.00;99.90;;;;;;5050906;28;20506;-76
2021/05/08 02:07:06;;;;;;;9.53;8.60;;;1.00;99.90;;;;;;5052044;28;20469;-74
2021/05/08 02:09:42;;;;;;;10.13;8.83;;;1.00;99.90;;;;;;5049783;28;20446;-75
2021/05/08 02:12:16;;;;;;;9.30;8.13;;;1.00;99.90;;;;;;5051704;28;20472;-74
2021/05/08 02:14:51;;;;;;;10.33;9.33;;;0.90;99.90;;;;;;5048578;28;20940;-76
2021/05/08 02:17:26;;;;;;;10.03;8.97;;;0.90;99.90;;;;;;5048562;28;20513;-74
2021/05/08 02:20:00;;;;;;;10.13;9.03;;;0.80;99.90;;;;;;5046529;28;20507;-75
2021/05/08 02:22:35;;;;;;;10.43;8.97;;;0.90;99.90;;;;;;5049561;28;20457;-75
2021/05/08 02:25:14;;;;;;;9.60;8.60;;;0.80;99.90;;;;;;5050170;28;20527;-75
2021/05/08 02:27:49;;;;;;;11.23;9.70;;;0.80;99.90;;;;;;5050740;28;20450;-75
2021/05/08 02:30:26;;;;;;;12.40;9.60;;;0.80;99.90;;;;;;5045659;28;20453;-74
2021/05/08 02:33:02;;;;;;;9.80;8.80;;;0.80;99.90;;;;;;5050220;28;21123;-80
2021/05/08 02:35:37;;;;;;;11.30;9.27;;;0.80;99.90;;;;;;5048693;28;20908;-76
2021/05/08 02:38:13;;;;;;;10.07;9.00;;;0.70;99.90;;;;;;5050050;28;20469;-75
2021/05/08 02:40:48;;;;;;;10.67;9.43;;;0.80;99.90;;;;;;5047775;28;20446;-76
2021/05/08 02:43:23;;;;;;;10.87;9.77;;;0.70;99.90;;;;;;5049593;28;20438;-76
2021/05/08 02:45:59;;;;;;;11.03;9.93;;;0.70;99.90;;;;;;5048930;28;20453;-76
2021/05/08 02:48:33;;;;;;;12.17;10.10;;;0.60;99.90;;;;;;5047500;28;20442;-76
2021/05/08 02:51:08;;;;;;;12.17;10.40;;;0.60;99.90;;;;;;5049270;28;20486;-74
2021/05/08 02:53:43;;;;;;;12.17;9.70;;;0.70;99.90;;;;;;5051147;28;20480;-74
2021/05/08 02:56:19;;;;;;;11.33;9.70;;;0.70;99.90;;;;;;5049699;28;20488;-74
2021/05/08 02:58:54;;;;;;;13.37;10.20;;;0.70;99.90;;;;;;5049024;28;20456;-75
2021/05/08 03:01:28;;;;;;;11.67;10.40;;;0.70;99.90;;;;;;5046616;28;20996;-75
2021/05/08 03:04:03;;;;;;;10.73;9.63;;;0.70;99.90;;;;;;5045122;28;20454;-74
2021/05/08 03:06:38;;;;;;;11.53;9.63;;;0.70;99.90;;;;;;5048271;28;20636;-76
2021/05/08 03:09:12;;;;;;;11.93;8.90;;;0.70;99.90;;;;;;5049503;28;20976;-75
2021/05/08 03:11:48;;;;;;;13.23;9.83;;;0.70;99.90;;;;;;5048020;28;20456;-76
2021/05/08 03:14:23;;;;;;;10.77;8.97;;;0.70;99.90;;;;;;5048473;28;20544;-76
2021/05/08 03:16:58;;;;;;;11.67;10.27;;;0.60;99.90;;;;;;5047703;28;20969;-75
2021/05/08 03:19:33;;;;;;;10.27;9.13;;;0.60;99.90;;;;;;5049335;28;20450;-75
2021/05/08 03:22:08;;;;;;;12.77;9.40;;;0.60;99.90;;;;;;5046281;28;20470;-75
2021/05/08 03:24:42;;;;;;;12.00;9.43;;;0.60;99.90;;;;;;5048279;28;20937;-75
2021/05/08 03:27:18;;;;;;;11.73;9.90;;;0.60;99.90;;;;;;5046929;28;20477;-75
2021/05/08 03:29:53;;;;;;;9.80;8.43;;;0.60;99.90;;;;;;5046096;28;20452;-75
2021/05/08 03:32:28;;;;;;;11.33;8.90;;;0.60;99.90;;;;;;5046847;28;20960;-76
2021/05/08 03:35:02;;;;;;;10.73;9.53;;;0.50;99.90;;;;;;5049113;28;20507;-75
2021/05/08 03:37:37;;;;;;;11.40;9.23;;;0.60;99.90;;;;;;5048035;28;20536;-75
2021/05/08 03:40:13;;;;;;;11.47;9.20;;;0.60;99.90;;;;;;5047515;28;20527;-76
2021/05/08 03:42:48;;;;;;;12.00;10.20;;;0.60;99.90;;;;;;5043393;28;20450;-74
2021/05/08 03:45:23;;;;;;;10.23;8.73;;;0.60;99.90;;;;;;5046459;28;20442;-76
2021/05/08 03:48:00;;;;;;;11.03;9.30;;;0.60;99.90;;;;;;5046605;28;20450;-75
2021/05/08 03:50:35;;;;;;;11.50;9.23;;;0.70;99.90;;;;;;5047582;28;20446;-76
2021/05/08 03:53:09;;;;;;;10.00;8.77;;;0.70;99.90;;;;;;5044143;28;20472;-75
2021/05/08 03:55:44;;;;;;;10.77;8.40;;;0.80;99.90;;;;;;5048497;28;20553;-75
2021/05/08 03:58:24;;;;;;;9.20;8.03;;;0.80;99.90;;;;;;5047405;28;20445;-74
2021/05/08 04:00:59;;;;;;;10.93;9.80;;;1.00;99.90;;;;;;5046059;28;20446;-74
2021/05/08 04:03:34;;;;;;;10.90;9.03;;;1.70;99.90;;;;;;5046197;28;20556;-74
2021/05/08 04:06:09;;;;;;;9.20;8.30;;;2.50;93.60;;;;;;5047808;28;20454;-75
2021/05/08 04:08:44;;;;;;;9.47;8.10;;;3.50;87.80;;;;;;5045097;28;20997;-74
2021/05/08 04:11:19;;;;;;;8.90;8.00;;;4.20;81.00;;;;;;5047035;28;20451;-75
2021/05/08 04:13:54;;;;;;;8.73;7.83;;;4.70;77.00;;;;;;5042191;28;20992;-77
2021/05/08 04:16:31;;;;;;;8.23;7.10;;;5.30;74.80;;;;;;5049454;28;20446;-75
2021/05/08 04:19:06;;;;;;;8.97;7.87;;;5.80;72.30;;;;;;5046605;28;20459;-77
2021/05/08 04:21:41;;;;;;;7.63;6.73;;;6.40;70.60;;;;;;5048119;28;20448;-76
2021/05/08 04:24:16;;;;;;;6.93;6.33;;;6.90;69.30;;;;;;5046406;28;20516;-74
2021/05/08 04:26:51;;;;;;;6.30;5.80;;;7.10;67.90;;;;;;5043454;28;20516;-76
2021/05/08 04:29:27;;;;;;;8.73;6.27;;;7.40;66.70;;;;;;5046660;28;20474;-76
2021/05/08 04:32:02;;;;;;;6.60;6.00;;;7.70;65.30;;;;;;5048010;28;20452;-77
2021/05/08 04:34:37;;;;;;;6.60;6.00;;;8.20;63.50;;;;;;5045182;28;20478;-75
2021/05/08 04:37:12;;;;;;;6.73;6.03;;;8.60;62.00;;;;;;5047861;28;20462;-77
2021/05/08 04:39:47;;;;;;;7.03;6.37;;;9.00;60.70;;;;;;5044740;28;20465;-75
2021/05/08 04:42:22;;;;;;;5.83;5.33;;;9.30;59.30;;;;;;5043297;28;20455;-75
2021/05/08 04:44:58;;;;;;;6.20;5.70;;;9.70;58.80;;;;;;5050180;28;20459;-75
2021/05/08 04:47:33;;;;;;;5.60;5.10;;;10.00;56.40;;;;;;5050150;28;20465;-76
2021/05/08 04:50:08;;;;;;;6.00;5.50;;;10.30;55.70;;;;;;5050510;28;20456;-76
2021/05/08 04:52:42;;;;;;;5.90;5.40;;;10.60;54.80;;;;;;5052257;28;20461;-77
2021/05/08 04:55:17;;;;;;;6.83;6.23;;;10.50;53.80;;;;;;5049818;28;20453;-76
2021/05/08 04:57:52;;;;;;;6.60;6.00;;;11.00;53.90;;;;;;5050643;28;20480;-76
2021/05/08 05:00:28;;;;;;;6.50;5.90;;;11.10;53.10;;;;;;5046209;28;20562;-80
2021/05/08 05:03:02;;;;;;;6.03;5.53;;;11.40;52.70;;;;;;5054994;28;20444;-81
2021/05/08 05:05:37;;;;;;;6.00;5.50;;;11.20;52.20;;;;;;5053427;28;20458;-74
2021/05/08 05:08:12;;;;;;;6.17;5.50;;;11.80;52.00;;;;;;5055607;28;20444;-74
2021/05/08 05:10:47;;;;;;;6.23;5.73;;;12.30;51.50;;;;;;5064474;28;20459;-74
2021/05/08 05:13:21;;;;;;;6.40;5.60;;;12.00;50.50;;;;;;5056022;28;20473;-76
2021/05/08 05:15:57;;;;;;;8.10;5.30;;;12.50;50.50;;;;;;5056162;28;20465;-75
2021/05/08 05:18:33;;;;;;;6.30;5.77;;;12.60;50.30;;;;;;5055747;28;20502;-74
2021/05/08 05:21:05;;;;;;;5.87;5.37;;;12.80;49.90;;;;;;5058456;28;20446;-75
2021/05/08 05:29:34;;;;;;;5.97;5.57;;;13.30;49.30;;;;;;5280854;22;20481;-75
2021/05/08 05:32:09;;;;;;;5.93;5.40;;;13.40;48.80;;;;;;5080167;28;20456;-74
2021/05/08 05:35:03;;;;;;;5.57;5.10;;;13.30;48.30;;;;;;5075126;28;20473;-75
2021/05/08 05:37:38;;;;;;;5.47;5.07;;;13.40;48.60;;;;;;5076336;28;20527;-73
2021/05/08 05:40:14;;;;;;;6.00;5.50;;;12.40;48.70;;;;;;5075980;28;20515;-75
2021/05/08 05:43:07;;;;;;;8.00;6.43;;;12.50;48.80;;;;;;5075505;28;20417;-75
2021/05/08 05:46:01;;;;;;;7.17;6.53;;;11.80;49.40;;;;;;5054616;28;20861;-74
2021/05/08 05:48:37;;;;;;;7.00;6.30;;;11.80;49.00;;;;;;5054824;28;20450;-79
2021/05/08 05:51:11;;;;;;;6.20;5.70;;;11.40;49.10;;;;;;5073535;28;20471;-74
2021/05/08 05:53:55;;;;;;;6.70;5.70;;;11.00;49.50;;;;;;5075360;28;20821;-75
2021/05/08 05:56:34;;;;;;;6.17;5.57;;;11.00;49.90;;;;;;5074498;28;20449;-74
2021/05/08 05:59:10;;;;;;;7.70;6.87;;;10.40;49.70;;;;;;5075173;28;20468;-75
2021/05/08 06:01:42;;;;;;;6.20;5.60;;;9.50;50.90;;;;;;5074409;28;20455;-75
2021/05/08 06:07:29;;;;;;;6.13;5.63;;;7.60;52.10;;;;;;5012819;28;20639;-75
2021/05/08 06:10:04;;;;;;;6.73;6.00;;;6.90;53.60;;;;;;5074228;28;20860;-75
2021/05/08 06:12:40;;;;;;;7.83;7.13;;;6.70;54.40;;;;;;5074056;28;20451;-74
2021/05/08 06:15:16;;;;;;;7.10;6.40;;;6.70;55.10;;;;;;5074486;28;20468;-76
2021/05/08 06:17:51;;;;;;;6.50;5.87;;;6.70;55.50;;;;;;5073683;28;20457;-74
2021/05/08 06:23:38;;;;;;;6.60;6.00;;;6.90;55.80;;;;;;5043246;28;20934;-73
2021/05/08 06:42:53;;;;;;;8.63;7.83;;;7.80;55.00;;;;;;5014369;28;20456;-74
2021/05/08 06:45:28;;;;;;;7.27;6.57;;;7.90;54.60;;;;;;5024315;28;20458;-75
2021/05/08 06:48:03;;;;;;;7.17;6.47;;;8.10;54.50;;;;;;5028474;28;20675;-75
2021/05/08 06:54:07;;;;;;;7.23;6.57;;;8.30;54.40;;;;;;4988289;28;20496;-75
2021/05/08 06:56:43;;;;;;;6.30;5.70;;;8.50;54.10;;;;;;4973620;28;20567;-74
2021/05/08 06:59:34;;;;;;;6.83;6.23;;;8.70;54.00;;;;;;5034579;28;20430;-74
2021/05/08 07:02:31;;;;;;;5.83;5.23;;;8.80;53.70;;;;;;5050456;28;20971;-75
2021/05/08 07:11:30;;;;;;;6.50;5.73;;;9.40;53.20;;;;;;5032663;28;20462;-75
2021/05/08 07:14:06;;;;;;;5.73;5.20;;;9.50;52.50;;;;;;5029269;28;20484;-77
2021/05/08 07:16:41;;;;;;;6.13;5.47;;;9.70;52.10;;;;;;5032899;28;20457;-77
2021/05/08 07:19:16;;;;;;;5.53;5.10;;;9.70;51.80;;;;;;5030308;28;20598;-75
2021/05/08 07:21:50;;;;;;;5.33;4.83;;;9.90;51.70;;;;;;5032727;28;20454;-77
2021/05/08 07:24:25;;;;;;;5.53;4.93;;;10.10;50.50;;;;;;5032356;28;20941;-77
2021/05/08 07:30:14;;;;;;;5.70;5.10;;;10.30;49.60;;;;;;5012298;28;20490;-77
2021/05/08 07:32:48;;;;;;;4.53;4.13;;;10.40;49.40;;;;;;5014194;28;20455;-76
2021/05/08 07:35:23;;;;;;;5.53;4.93;;;10.60;49.30;;;;;;5013753;28;20470;-76
2021/05/08 07:38:17;;;;;;;5.67;4.10;;;10.80;49.60;;;;;;5019329;28;20511;-76
2021/05/08 07:41:11;;;;;;;3.53;3.23;;;10.90;48.70;;;;;;4997012;28;21179;-76
2021/05/08 07:43:46;;;;;;;4.10;3.53;;;11.10;48.70;;;;;;5012960;28;20526;-76
2021/05/08 07:46:21;;;;;;;8.30;7.23;;;11.30;48.80;;;;;;5013567;28;20816;-75
2021/05/08 07:48:54;;;;;;;6.90;3.47;;;11.40;48.40;;;;;;5016130;28;20546;-78
2021/05/08 07:51:28;;;;;;;5.10;3.73;;;11.50;48.40;;;;;;5012304;28;20551;-76
2021/05/08 07:54:03;;;;;;;4.53;4.13;;;11.60;48.20;;;;;;5010990;28;20479;-76
2021/05/08 07:56:38;;;;;;;6.63;3.70;;;11.80;47.70;;;;;;5022147;28;20457;-75
2021/05/08 08:08:42;;;;;;;4.67;4.07;;;12.40;47.00;;;;;;4972515;28;20518;-75
2021/05/08 08:11:21;;;;;;;8.20;4.17;;;12.40;45.90;;;;;;4956386;28;20462;-76
2021/05/08 08:13:55;;;;;;;4.33;3.93;;;12.40;45.70;;;;;;5004000;28;20479;-76
2021/05/08 08:16:30;;;;;;;6.00;4.50;;;12.40;45.30;;;;;;5014292;28;21241;-82
2021/05/08 08:19:06;;;;;;;7.67;4.30;;;12.60;45.40;;;;;;5015438;28;20778;-83
2021/05/08 08:21:41;;;;;;;8.60;4.83;;;12.60;45.20;;;;;;5022995;28;20534;-83
2021/05/08 08:24:16;;;;;;;4.47;4.07;;;12.80;45.40;;;;;;5025938;28;20451;-82
2021/05/08 08:26:56;;;;;;;4.47;3.80;;;13.00;45.20;;;;;;5025217;28;21081;-82
2021/05/08 08:29:31;;;;;;;4.50;4.00;;;13.10;45.30;;;;;;5026769;28;20515;-83
2021/05/08 08:32:06;;;;;;;5.47;3.30;;;12.80;44.80;;;;;;5023366;28;20490;-83
2021/05/08 08:34:49;;;;;;;5.47;3.20;;;13.00;43.60;;;;;;5022676;28;20485;-81
2021/05/08 08:37:21;;;;;;;4.03;3.63;;;13.20;43.70;;;;;;5015396;28;20479;-81
2021/05/08 08:39:54;;;;;;;3.77;3.47;;;13.30;43.30;;;;;;5022870;28;20463;-80
2021/05/08 08:42:30;;;;;;;3.10;2.80;;;13.50;43.00;;;;;;5022876;28;20448;-82
2021/05/08 08:45:06;;;;;;;3.57;3.10;;;13.50;42.10;;;;;;5022437;28;20490;-84
2021/05/08 08:47:41;;;;;;;3.70;2.70;;;13.80;41.80;;;;;;5016424;28;20487;-82
2021/05/08 08:53:34;;;;;;;4.20;2.90;;;14.10;40.40;;;;;;5014146;28;20475;-80
2021/05/08 08:56:09;;;;;;;4.07;2.97;;;14.00;39.90;;;;;;5017148;28;20455;-76
2021/05/08 08:58:59;;;;;;;3.00;2.80;;;14.30;39.70;;;;;;5001406;28;20468;-77
2021/05/08 09:04:46;;;;;;;4.20;2.60;;;14.40;39.90;;;;;;5015428;28;20447;-76
2021/05/08 09:07:23;;;;;;;2.90;2.57;;;14.50;39.50;;;;;;5012472;28;20444;-76
2021/05/08 09:09:59;;;;;;;3.07;2.77;;;14.40;40.40;;;;;;5018341;28;20453;-75
2021/05/08 09:12:33;;;;;;;3.20;3.00;;;14.30;40.40;;;;;;5014637;28;20511;-75
2021/05/08 09:18:39;;;;;;;2.97;2.77;;;14.10;40.10;;;;;;5012899;28;20499;-76
2021/05/08 09:21:29;;;;;;;3.00;2.70;;;14.40;39.90;;;;;;5013620;28;20487;-75
2021/05/08 09:24:06;;;;;;;11.70;3.47;;;15.00;39.80;;;;;;5011147;28;20468;-77
2021/05/08 09:27:00;;;;;;;3.70;3.10;;;15.80;40.10;;;;;;5016358;28;20468;-78
2021/05/08 09:32:56;;;;;;;4.33;3.87;;;15.80;39.90;;;;;;4959810;29;20579;-77
2021/05/08 09:35:34;;;;;;;4.90;3.17;;;15.90;39.40;;;;;;5015602;28;20539;-74
2021/05/08 09:38:16;;;;;;;2.90;2.70;;;16.00;38.80;;;;;;5012269;28;20960;-76
2021/05/08 09:40:53;;;;;;;6.27;3.07;;;16.10;38.60;;;;;;5010698;28;20479;-74
2021/05/08 09:43:28;;;;;;;3.33;3.00;;;15.80;38.60;;;;;;5014886;28;20539;-77
2021/05/08 09:46:02;;;;;;;2.83;2.60;;;15.70;37.70;;;;;;5012801;28;20497;-76
2021/05/08 09:48:41;;;;;;;3.10;2.60;;;16.00;38.00;;;;;;5008939;28;20802;-77
2021/05/08 09:51:25;;;;;;;3.00;2.70;;;16.70;38.10;;;;;;5015283;28;20448;-75
2021/05/08 09:54:13;;;;;;;3.20;2.90;;;16.90;38.00;;;;;;5015417;28;20478;-76
2021/05/08 10:09:20;;;;;;;4.50;2.70;;;15.90;38.80;;;;;;4997486;28;20446;-76
2021/05/08 10:12:17;;;;;;;3.77;2.97;;;15.80;38.40;;;;;;5015272;28;20583;-77
2021/05/08 10:21:45;;;;;;;3.87;2.53;;;16.10;38.10;;;;;;5008286;28;20598;-79
2021/05/08 10:24:20;;;;;;;3.30;2.57;;;16.60;37.90;;;;;;5014424;28;20444;-76
2021/05/08 10:27:00;;;;;;;2.70;2.43;;;16.90;37.50;;;;;;5051236;22;20475;-77
2021/05/08 10:29:39;;;;;;;2.53;2.33;;;16.60;37.60;;;;;;5038228;28;20459;-78
2021/05/08 10:32:18;;;;;;;4.20;2.73;;;16.60;37.00;;;;;;5027068;28;20983;-77
2021/05/08 10:35:03;;;;;;;7.23;3.30;;;16.90;37.30;;;;;;5032007;28;20544;-84
2021/05/08 10:37:38;;;;;;;2.67;2.47;;;17.20;37.10;;;;;;5035340;28;20510;-85
2021/05/08 10:40:20;;;;;;;2.60;2.40;;;17.60;36.90;;;;;;5039022;28;20445;-83
2021/05/08 10:42:55;;;;;;;2.97;2.67;;;17.00;37.40;;;;;;5039535;28;20460;-83
2021/05/08 10:45:40;;;;;;;2.60;2.40;;;16.40;36.80;;;;;;5036501;28;20454;-83
2021/05/08 10:48:17;;;;;;;2.83;2.63;;;16.10;37.20;;;;;;5031184;28;20821;-83
2021/05/08 10:51:00;;;;;;;5.37;2.30;;;16.70;37.30;;;;;;5040391;28;20522;-84
2021/05/08 10:53:46;;;;;;;2.90;2.67;;;16.80;36.70;;;;;;5035955;28;20807;-83
2021/05/08 10:56:40;;;;;;;2.77;2.53;;;16.80;36.60;;;;;;5039892;28;20463;-85
2021/05/08 10:59:17;;;;;;;3.13;2.10;;;17.40;36.30;;;;;;5035946;28;20484;-82
2021/05/08 11:01:53;;;;;;;2.80;2.40;;;17.30;36.50;;;;;;5037775;28;20442;-84
2021/05/08 11:04:28;;;;;;;3.00;2.40;;;17.60;37.20;;;;;;5030865;28;21008;-83
2021/05/08 11:07:42;;;;;;;2.93;2.63;;;17.90;37.10;;;;;;5032124;28;20453;-83
2021/05/08 11:10:47;;;;;;;4.20;3.27;;;17.90;37.10;;;;;;4984477;28;20461;-84
2021/05/08 11:13:24;;;;;;;3.33;2.67;;;18.30;35.40;;;;;;5036076;28;20452;-84
2021/05/08 11:16:13;;;;;;;2.60;2.40;;;18.30;35.50;;;;;;5048065;28;20456;-85
2021/05/08 11:18:50;;;;;;;2.50;2.30;;;18.00;35.60;;;;;;5032440;28;20460;-84
2021/05/08 11:21:46;;;;;;;2.47;2.27;;;18.20;35.70;;;;;;5039833;28;20473;-83
2021/05/08 11:24:52;;;;;;;2.50;2.13;;;18.60;36.00;;;;;;5034562;28;20527;-84
2021/05/08 11:27:33;;;;;;;2.50;2.30;;;18.90;36.10;;;;;;5018824;28;21030;-84
2021/05/08 11:30:21;;;;;;;2.80;2.60;;;18.40;35.70;;;;;;5018118;28;20450;-85
2021/05/08 11:32:53;;;;;;;2.63;2.43;;;18.30;36.30;;;;;;5014207;28;20485;-85
2021/05/08 11:35:37;;;;;;;1.93;1.83;;;17.90;35.50;;;;;;5011391;28;20475;-84
2021/05/08 11:38:30;;;;;;;2.80;2.20;;;18.00;36.10;;;;;;5017621;28;20468;-83
2021/05/08 11:41:17;;;;;;;2.43;2.13;;;18.10;34.90;;;;;;5016728;28;20458;-83
2021/05/08 11:43:58;;;;;;;2.40;2.20;;;18.00;35.50;;;;;;5016952;28;20451;-85
2021/05/08 11:46:35;;;;;;;2.27;2.07;;;18.70;35.20;;;;;;5018747;28;20490;-83
2021/05/08 11:49:11;;;;;;;3.90;2.27;;;19.10;34.10;;;;;;5021929;28;20485;-84
2021/05/08 11:51:55;;;;;;;2.23;2.03;;;19.10;34.20;;;;;;5015766;28;20466;-83
2021/05/08 11:54:31;;;;;;;3.37;2.20;;;19.30;34.40;;;;;;5016251;28;20463;-83
2021/05/08 11:57:20;;;;;;;3.00;2.30;;;19.10;35.40;;;;;;5013324;28;20459;-81
2021/05/08 11:59:55;;;;;;;2.23;2.03;;;19.00;35.20;;;;;;5021251;28;20531;-83
2021/05/08 12:02:33;;;;;;;4.17;2.40;;;18.90;35.00;;;;;;5017973;28;20459;-80
2021/05/08 12:05:08;;;;;;;4.00;2.50;;;19.10;34.80;;;;;;5016055;28;20859;-83
2021/05/08 12:07:46;;;;;;;3.00;2.23;;;18.90;34.90;;;;;;5022999;28;20458;-83
2021/05/08 12:10:23;;;;;;;2.27;2.07;;;18.90;35.00;;;;;;5019192;28;20501;-83
2021/05/08 12:12:59;;;;;;;2.43;2.20;;;18.80;34.40;;;;;;5010057;28;20447;-83
2021/05/08 12:15:40;;;;;;;3.20;1.90;;;18.80;34.20;;;;;;5018858;28;20459;-81
2021/05/08 12:18:16;;;;;;;2.30;2.10;;;18.80;34.20;;;;;;5017641;28;20442;-82
2021/05/08 12:20:53;;;;;;;3.33;2.30;;;18.50;34.60;;;;;;5017401;28;20458;-82
2021/05/08 12:23:30;;;;;;;2.13;1.90;;;18.20;34.70;;;;;;5008092;28;20475;-82
2021/05/08 12:26:19;;;;;;;2.77;2.40;;;17.90;34.50;;;;;;5017979;28;20520;-81
2021/05/08 12:29:01;;;;;;;3.43;2.30;;;18.00;35.20;;;;;;5019139;28;20481;-82
2021/05/08 12:31:38;;;;;;;3.13;2.07;;;17.70;35.10;;;;;;5017504;28;20901;-81
2021/05/08 12:34:21;;;;;;;2.40;2.17;;;17.80;35.30;;;;;;5017826;28;20468;-82
2021/05/08 12:37:09;;;;;;;3.07;2.13;;;18.10;35.40;;;;;;5010683;28;20453;-83
2021/05/08 12:39:55;;;;;;;4.47;1.90;;;17.90;34.40;;;;;;5018762;28;21017;-82
2021/05/08 12:42:46;;;;;;;1.83;1.73;;;18.20;34.60;;;;;;5017432;28;20457;-82
2021/05/08 12:45:21;;;;;;;2.00;1.80;;;18.50;35.00;;;;;;5019968;28;20452;-82
2021/05/08 12:47:56;;;;;;;2.33;1.53;;;18.60;34.40;;;;;;5014580;28;20547;-82
2021/05/08 12:50:36;;;;;;;3.30;2.00;;;18.30;34.20;;;;;;5020851;28;20441;-82
2021/05/08 12:53:11;;;;;;;3.03;1.80;;;18.50;34.50;;;;;;5017053;28;20457;-81
2021/05/08 12:55:48;;;;;;;2.67;2.07;;;18.60;34.40;;;;;;5016165;28;20492;-82
2021/05/08 12:58:28;;;;;;;1.80;1.70;;;18.50;34.00;;;;;;5018216;28;20456;-82
2021/05/08 13:01:04;;;;;;;3.03;2.33;;;18.10;33.80;;;;;;5017685;28;20568;-82
2021/05/08 13:03:43;;;;;;;2.67;2.23;;;17.90;34.00;;;;;;5020972;28;20461;-82
2021/05/08 13:06:28;;;;;;;4.90;1.73;;;18.00;33.50;;;;;;5014740;28;20450;-82
2021/05/08 13:09:00;;;;;;;2.50;1.93;;;17.90;33.40;;;;;;5023182;28;20465;-83
2021/05/08 13:11:44;;;;;;;2.80;1.73;;;17.80;33.20;;;;;;5019132;28;20721;-81
2021/05/08 13:14:30;;;;;;;1.90;1.70;;;18.00;32.90;;;;;;5017176;28;20474;-82
2021/05/08 13:17:06;;;;;;;3.13;1.90;;;18.20;33.10;;;;;;5020827;28;20560;-82
2021/05/08 13:19:46;;;;;;;3.60;1.80;;;18.60;32.90;;;;;;5021096;28;20449;-82
2021/05/08 13:22:21;;;;;;;2.40;1.60;;;18.70;33.50;;;;;;5027596;28;20560;-83
2021/05/08 13:25:18;;;;;;;2.53;2.00;;;18.90;33.60;;;;;;5019711;28;20474;-83
2021/05/08 13:28:03;;;;;;;3.07;2.30;;;18.80;33.30;;;;;;5026482;28;20451;-83
2021/05/08 13:30:39;;;;;;;3.20;1.87;;;19.00;33.30;;;;;;5022258;28;20459;-82
2021/05/08 13:33:14;;;;;;;1.83;1.70;;;19.00;32.30;;;;;;5027989;28;20447;-82
2021/05/08 13:35:50;;;;;;;1.80;1.70;;;19.20;32.70;;;;;;5006410;28;20483;-82
2021/05/08 13:38:30;;;;;;;3.40;1.90;;;19.40;33.10;;;;;;5024333;28;20454;-83
2021/05/08 13:41:05;;;;;;;1.50;1.40;;;19.60;33.00;;;;;;5022496;28;20529;-84
2021/05/08 13:43:57;;;;;;;2.93;1.87;;;19.50;32.90;;;;;;5020896;28;20447;-85
2021/05/08 13:46:36;;;;;;;1.80;1.70;;;19.50;32.80;;;;;;5025913;28;21266;-83
2021/05/08 13:49:11;;;;;;;1.40;1.30;;;19.80;32.90;;;;;;5020628;28;20455;-83
2021/05/08 13:51:48;;;;;;;2.80;1.87;;;20.10;32.80;;;;;;5024202;28;20918;-83
2021/05/08 13:54:24;;;;;;;1.73;1.60;;;20.30;32.70;;;;;;5027736;28;20468;-83
2021/05/08 13:56:59;;;;;;;2.10;1.90;;;20.80;33.00;;;;;;5025141;28;20459;-85
2021/05/08 13:59:35;;;;;;;6.80;1.50;;;20.60;32.60;;;;;;5029886;28;20470;-84
2021/05/08 14:02:11;;;;;;;2.43;1.60;;;20.80;32.40;;;;;;5024532;28;20459;-84
2021/05/08 14:07:31;;;;;;;3.07;1.60;;;20.20;32.90;;;;;;5021940;28;20444;-85
2021/05/08 14:10:04;;;;;;;3.17;1.77;;;20.90;33.10;;;;;;5023155;28;20450;-83
2021/05/08 14:12:38;;;;;;;1.73;1.63;;;20.60;32.90;;;;;;5021118;28;20452;-84
2021/05/08 14:15:21;;;;;;;3.40;2.20;;;20.80;33.30;;;;;;5019704;28;20479;-84
2021/05/08 14:17:56;;;;;;;1.80;1.70;;;20.90;33.40;;;;;;5024208;28;20645;-85
2021/05/08 14:20:31;;;;;;;2.20;1.80;;;20.70;33.30;;;;;;5023769;28;20458;-84
2021/05/08 14:23:06;;;;;;;2.47;2.00;;;20.40;33.50;;;;;;5024075;28;20463;-84
2021/05/08 14:25:44;;;;;;;2.37;1.77;;;20.00;33.50;;;;;;5022761;28;20491;-83
2021/05/08 14:28:19;;;;;;;2.07;1.90;;;19.70;33.40;;;;;;5023823;28;20447;-83
2021/05/08 14:30:54;;;;;;;2.40;2.20;;;19.80;34.00;;;;;;5023057;28;20451;-84
2021/05/08 14:33:31;;;;;;;2.50;1.80;;;19.70;33.90;;;;;;5022812;28;20455;-84
2021/05/08 14:36:03;;;;;;;3.67;2.50;;;20.00;33.80;;;;;;5022696;28;20487;-84
2021/05/08 14:38:38;;;;;;;3.10;2.50;;;20.20;33.90;;;;;;5018163;28;20455;-84
2021/05/08 14:41:22;;;;;;;2.53;2.33;;;20.10;33.90;;;;;;5012813;28;20513;-85
2021/05/08 14:44:02;;;;;;;2.80;2.00;;;20.20;33.90;;;;;;5020533;28;20804;-84
2021/05/08 14:46:41;;;;;;;4.77;2.33;;;20.20;33.80;;;;;;5024828;28;20459;-85
2021/05/08 14:49:16;;;;;;;2.83;2.00;;;20.50;33.60;;;;;;5022447;28;20459;-85
2021/05/08 14:51:51;;;;;;;2.93;2.17;;;21.20;33.70;;;;;;5018662;28;20497;-86
2021/05/08 14:54:26;;;;;;;3.27;2.13;;;21.50;33.70;;;;;;5021642;28;20466;-84
2021/05/08 14:57:01;;;;;;;2.17;2.00;;;21.10;33.70;;;;;;5019143;28;20455;-84
2021/05/08 14:59:36;;;;;;;1.97;1.87;;;20.40;33.40;;;;;;5023991;28;20463;-84
2021/05/08 15:02:18;;;;;;;2.60;2.40;;;20.90;34.10;;;;;;5019825;28;20537;-83
2021/05/08 15:04:55;;;;;;;2.70;2.37;;;20.80;33.90;;;;;;5019255;28;20478;-84
2021/05/08 15:07:29;;;;;;;2.40;2.30;;;20.10;34.30;;;;;;5018115;28;20494;-83